createdAt,value
2018-06-14T00:00:49.970Z,2.8
2018-06-14T00:02:50.099Z,2.8
2018-06-14T00:04:50.358Z,2.8
2018-06-14T00:06:49.605Z,3.0
2018-06-14T00:08:49.676Z,3.0
2018-06-14T00:10:49.742Z,3.2
2018-06-14T00:12:49.860Z,2.9
2018-06-14T00:14:49.969Z,3.1
2018-06-14T00:16:50.207Z,3.1
2018-06-14T00:18:50.325Z,3.1
2018-06-14T00:20:50.456Z,3.1
2018-06-14T00:22:49.601Z,3.3
2018-06-14T00:24:49.683Z,3.1
2018-06-14T00:26:49.921Z,3.1
2018-06-14T00:28:50.012Z,3.3
2018-06-14T00:30:50.114Z,3.3
2018-06-14T00:32:50.246Z,3.0
2018-06-14T00:34:49.583Z,3.4
2018-06-14T00:36:49.742Z,3.4
2018-06-14T00:38:49.850Z,3.3
2018-06-14T00:40:49.989Z,3.3
2018-06-14T00:42:50.111Z,3.2
2018-06-14T00:44:50.226Z,3.2
2018-06-14T00:46:49.601Z,3.2
2018-06-14T00:48:49.707Z,3.5
2018-06-14T00:50:49.813Z,3.5
2018-06-14T00:52:50.017Z,3.2
2018-06-14T00:54:50.143Z,3.3
2018-06-14T00:56:50.397Z,3.0
2018-06-14T00:58:50.520Z,3.0
2018-06-14T01:00:49.656Z,3.2
2018-06-14T01:02:49.828Z,3.2
2018-06-14T01:04:50.254Z,3.1
2018-06-14T01:06:49.537Z,3.1
2018-06-14T01:08:49.654Z,3.1
2018-06-14T01:10:49.776Z,3.4
2018-06-14T01:12:49.945Z,3.2
2018-06-14T01:14:50.178Z,3.1
2018-06-14T01:16:50.532Z,3.1
2018-06-14T01:18:49.635Z,3.4
2018-06-14T01:20:49.779Z,3.4
2018-06-14T01:22:49.900Z,3.4
2018-06-14T01:24:49.991Z,3.6
2018-06-14T01:26:50.298Z,3.6
2018-06-14T01:28:50.489Z,3.2
2018-06-14T01:30:49.679Z,3.5
2018-06-14T01:32:49.827Z,3.5
2018-06-14T01:34:50.105Z,3.6
2018-06-14T01:36:49.612Z,3.6
2018-06-14T01:38:49.764Z,3.3
2018-06-14T01:40:49.880Z,3.5
2018-06-14T01:42:49.957Z,3.4
2018-06-14T01:44:50.096Z,3.4
2018-06-14T01:46:50.386Z,3.5
2018-06-14T01:48:50.490Z,3.2
2018-06-14T01:50:49.591Z,3.5
2018-06-14T01:52:49.778Z,3.2
2018-06-14T01:54:49.998Z,3.2
2018-06-14T01:56:50.167Z,3.6
2018-06-14T01:58:50.327Z,3.2
2018-06-14T02:00:50.447Z,3.3
2018-06-14T02:02:49.529Z,3.3
2018-06-14T02:04:50.033Z,3.3
2018-06-14T02:06:50.300Z,3.6
2018-06-14T02:08:50.101Z,3.4
2018-06-14T02:10:50.263Z,3.6
2018-06-14T02:12:50.405Z,3.6
2018-06-14T02:14:50.518Z,3.6
2018-06-14T02:16:49.817Z,3.6
2018-06-14T02:18:49.972Z,3.7
2018-06-14T02:20:50.169Z,3.6
2018-06-14T02:22:50.307Z,3.6
2018-06-14T02:24:50.373Z,3.6
2018-06-14T02:26:49.655Z,3.8
2018-06-14T02:28:49.777Z,3.7
2018-06-14T02:30:49.934Z,3.7
2018-06-14T02:32:50.053Z,3.4
2018-06-14T02:34:49.536Z,3.4
2018-06-14T02:36:49.787Z,3.8
2018-06-14T02:38:49.971Z,3.9
2018-06-14T02:40:50.191Z,3.9
2018-06-14T02:42:50.360Z,3.5
2018-06-14T02:44:50.485Z,3.5
2018-06-14T02:46:49.787Z,3.8
2018-06-14T02:48:49.923Z,3.8
2018-06-14T02:50:50.097Z,3.8
2018-06-14T02:52:50.367Z,3.8
2018-06-14T02:54:50.596Z,3.9
2018-06-14T02:56:49.861Z,4.1
2018-06-14T02:58:50.055Z,4.2
2018-06-14T03:00:50.195Z,4.2
2018-06-14T03:02:50.343Z,4.0
2018-06-14T03:04:49.641Z,4.0
2018-06-14T03:06:49.860Z,4.0
2018-06-14T03:08:50.031Z,3.8
2018-06-14T03:10:50.188Z,4.3
2018-06-14T03:12:50.402Z,4.3
2018-06-14T03:14:49.588Z,4.2
2018-06-14T03:16:49.972Z,4.1
2018-06-14T03:18:50.136Z,4.3
2018-06-14T03:20:50.228Z,4.3
2018-06-14T03:22:50.386Z,3.9
2018-06-14T03:24:50.491Z,3.9
2018-06-14T03:26:49.732Z,4.3
2018-06-14T03:28:49.895Z,4.6
2018-06-14T03:30:50.034Z,4.6
2018-06-14T03:32:50.248Z,4.3
2018-06-14T03:34:49.525Z,4.5
2018-06-14T03:36:49.903Z,4.3
2018-06-14T03:38:50.000Z,4.3
2018-06-14T03:40:50.279Z,4.3
2018-06-14T03:42:50.059Z,4.3
2018-06-14T03:44:50.175Z,4.3
2018-06-14T03:46:50.482Z,4.6
2018-06-14T03:48:49.673Z,4.6
2018-06-14T03:50:49.818Z,4.7
2018-06-14T03:52:49.978Z,4.7
2018-06-14T03:54:50.142Z,4.7
2018-06-14T03:56:50.497Z,4.9
2018-06-14T03:58:49.605Z,4.9
2018-06-14T04:00:49.796Z,4.6
2018-06-14T04:02:49.924Z,4.3
2018-06-14T04:04:50.235Z,4.8
2018-06-14T04:06:50.495Z,4.6
2018-06-14T04:08:49.627Z,4.6
2018-06-14T04:10:49.788Z,5.2
2018-06-14T04:12:50.015Z,5.3
2018-06-14T04:14:50.163Z,4.7
2018-06-14T04:16:50.346Z,4.7
2018-06-14T04:18:50.472Z,4.7
2018-06-14T04:20:49.608Z,4.7
2018-06-14T04:22:49.736Z,5.0
2018-06-14T04:24:49.880Z,5.2
2018-06-14T04:26:49.587Z,5.2
2018-06-14T04:28:49.723Z,4.8
2018-06-14T04:30:49.860Z,4.8
2018-06-14T04:32:50.044Z,5.0
2018-06-14T04:34:49.608Z,5.0
2018-06-14T04:36:49.822Z,5.3
2018-06-14T04:38:49.943Z,5.3
2018-06-14T04:40:50.064Z,5.3
2018-06-14T04:42:50.273Z,5.1
2018-06-14T04:44:50.388Z,4.8
2018-06-14T04:46:49.696Z,4.7
2018-06-14T04:48:50.014Z,4.7
2018-06-14T04:50:50.163Z,4.5
2018-06-14T04:52:50.376Z,4.8
2018-06-14T04:54:50.519Z,4.5
2018-06-14T04:56:49.776Z,4.9
2018-06-14T04:58:49.896Z,4.9
2018-06-14T05:00:50.030Z,4.4
2018-06-14T05:02:50.134Z,4.5
2018-06-14T05:04:49.669Z,4.5
2018-06-14T05:06:49.957Z,4.5
2018-06-14T05:08:50.051Z,4.3
2018-06-14T05:10:50.167Z,4.4
2018-06-14T05:12:50.320Z,4.4
2018-06-14T05:14:50.440Z,5.1
2018-06-14T05:16:49.744Z,5.1
2018-06-14T05:18:49.759Z,5.0
2018-06-14T05:20:49.890Z,5.2
2018-06-14T05:22:49.886Z,5.1
2018-06-14T05:24:49.851Z,6.9
2018-06-14T05:26:49.953Z,6.9
2018-06-14T05:28:49.939Z,4.7
2018-06-14T05:30:49.889Z,5.0
2018-06-14T05:32:49.841Z,5.2
2018-06-14T05:34:49.969Z,5.2
2018-06-14T05:36:50.510Z,5.0
2018-06-14T05:38:50.472Z,4.8
2018-06-14T05:40:49.666Z,4.7
2018-06-14T05:42:49.892Z,4.7
2018-06-14T05:44:50.044Z,4.7
2018-06-14T05:46:50.371Z,5.0
2018-06-14T05:48:50.486Z,5.1
2018-06-14T05:50:49.592Z,5.6
2018-06-14T05:52:49.739Z,5.6
2018-06-14T05:54:49.882Z,5.8
2018-06-14T05:56:50.124Z,5.3
2018-06-14T05:58:50.270Z,5.1
2018-06-14T06:00:50.485Z,5.8
2018-06-14T06:02:49.673Z,5.8
2018-06-14T06:04:50.376Z,4.8
2018-06-14T06:06:49.668Z,4.8
2018-06-14T06:08:49.794Z,5.6
2018-06-14T06:10:49.915Z,5.3
2018-06-14T06:12:50.086Z,5.3
2018-06-14T06:14:50.206Z,5.3
2018-06-14T06:16:50.439Z,5.6
2018-06-14T06:18:49.576Z,4.8
2018-06-14T06:20:49.688Z,5.2
2018-06-14T06:22:49.826Z,4.6
2018-06-14T06:24:49.957Z,4.6
2018-06-14T06:26:50.261Z,4.4
2018-06-14T06:28:49.867Z,4.5
2018-06-14T06:30:50.360Z,4.8
2018-06-14T06:32:50.498Z,4.8
2018-06-14T06:34:49.905Z,4.7
2018-06-14T06:36:50.401Z,4.8
2018-06-14T06:38:49.736Z,4.3
2018-06-14T06:40:50.293Z,4.3
2018-06-14T06:42:50.503Z,4.8
2018-06-14T06:44:49.787Z,4.7
2018-06-14T06:46:50.082Z,4.5
2018-06-14T06:48:50.305Z,4.4
2018-06-14T06:50:50.516Z,4.4
2018-06-14T06:52:49.780Z,4.3
2018-06-14T06:54:49.970Z,3.7
2018-06-14T06:56:50.186Z,3.8
2018-06-14T06:58:50.458Z,3.6
2018-06-14T07:00:49.851Z,3.6
2018-06-14T07:02:50.071Z,3.9
2018-06-14T07:04:50.504Z,3.8
2018-06-14T07:06:49.965Z,3.8
2018-06-14T07:08:50.063Z,4.1
2018-06-14T07:10:50.217Z,4.1
2018-06-14T07:12:50.403Z,4.1
2018-06-14T07:14:49.577Z,4.1
2018-06-14T07:16:49.950Z,3.9
2018-06-14T07:18:50.099Z,3.7
2018-06-14T07:20:50.351Z,3.8
2018-06-14T07:22:49.567Z,3.8
2018-06-14T07:24:49.733Z,3.7
2018-06-14T07:26:49.947Z,4.0
2018-06-14T07:28:50.154Z,4.0
2018-06-14T07:30:50.302Z,4.0
2018-06-14T07:32:50.522Z,4.0
2018-06-14T07:34:49.921Z,4.0
2018-06-14T07:36:50.190Z,3.7
2018-06-14T07:38:50.302Z,3.9
2018-06-14T07:40:50.490Z,3.9
2018-06-14T07:42:49.753Z,3.7
2018-06-14T07:44:49.921Z,4.1
2018-06-14T07:46:50.195Z,3.7
2018-06-14T07:48:50.343Z,4.4
2018-06-14T07:50:50.470Z,4.4
2018-06-14T07:52:49.560Z,3.9
2018-06-14T07:54:49.664Z,3.7
2018-06-14T07:56:50.101Z,3.5
2018-06-14T07:58:50.265Z,3.5
2018-06-14T08:00:50.402Z,3.6
2018-06-14T08:02:50.492Z,3.6
2018-06-14T08:04:49.805Z,3.2
2018-06-14T08:06:50.140Z,3.5
2018-06-14T08:08:50.307Z,3.2
2018-06-14T08:10:50.461Z,3.2
2018-06-14T08:12:49.747Z,2.6
2018-06-14T08:14:49.861Z,2.8
2018-06-14T08:16:50.166Z,2.8
2018-06-14T08:18:50.322Z,2.8
2018-06-14T08:20:50.497Z,3.1
2018-06-14T08:22:49.602Z,3.0
2018-06-14T08:24:49.855Z,2.5
2018-06-14T08:26:50.177Z,2.8
2018-06-14T08:28:50.274Z,2.8
2018-06-14T08:30:50.426Z,3.4
2018-06-14T08:32:49.544Z,2.8
2018-06-14T08:34:49.910Z,2.7
2018-06-14T08:36:50.205Z,2.7
2018-06-14T08:38:50.387Z,2.5
2018-06-14T08:40:50.563Z,2.5
2018-06-14T08:42:49.702Z,2.7
2018-06-14T08:44:49.949Z,2.5
2018-06-14T08:46:50.523Z,2.5
2018-06-14T08:48:49.735Z,2.5
2018-06-14T08:50:49.871Z,2.7
2018-06-14T08:52:49.961Z,2.7
2018-06-14T08:54:50.067Z,2.5
2018-06-14T08:56:50.280Z,2.8
2018-06-14T08:58:50.473Z,2.8
2018-06-14T09:00:49.606Z,2.9
2018-06-14T09:02:49.805Z,3.3
2018-06-14T09:04:50.065Z,3.0
2018-06-14T09:06:50.466Z,3.0
2018-06-14T09:08:49.606Z,2.6
2018-06-14T09:10:49.713Z,2.5
2018-06-14T09:12:49.909Z,2.5
2018-06-14T09:14:50.025Z,2.7
2018-06-14T09:16:50.426Z,2.7
2018-06-14T09:18:49.652Z,2.7
2018-06-14T09:20:49.757Z,2.6
2018-06-14T09:22:49.950Z,2.6
2018-06-14T09:24:50.091Z,2.6
2018-06-14T09:26:50.313Z,2.7
2018-06-14T09:28:50.439Z,2.3
2018-06-14T09:30:49.614Z,2.4
2018-06-14T09:32:49.757Z,2.4
2018-06-14T09:34:50.193Z,2.4
2018-06-14T09:36:49.516Z,2.4
2018-06-14T09:38:49.719Z,2.4
2018-06-14T09:40:49.834Z,2.1
2018-06-14T09:42:50.092Z,2.0
2018-06-14T09:44:49.698Z,2.0
2018-06-14T09:46:50.037Z,2.7
2018-06-14T09:48:50.202Z,2.9
2018-06-14T09:50:50.330Z,3.4
2018-06-14T09:52:49.578Z,3.6
2018-06-14T09:54:49.714Z,3.6
2018-06-14T09:56:49.985Z,3.3
2018-06-14T09:58:50.111Z,3.3
2018-06-14T10:00:50.374Z,2.9
2018-06-14T10:02:50.513Z,2.8
2018-06-14T10:04:49.903Z,2.8
2018-06-14T10:06:50.242Z,2.5
2018-06-14T10:08:50.479Z,2.6
2018-06-14T10:10:49.643Z,2.8
2018-06-14T10:12:49.830Z,2.8
2018-06-14T10:14:49.973Z,3.0
2018-06-14T10:16:50.284Z,3.0
2018-06-14T10:18:50.451Z,3.3
2018-06-14T10:20:49.549Z,3.1
2018-06-14T10:22:49.676Z,3.1
2018-06-14T10:24:49.770Z,3.1
2018-06-14T10:26:49.992Z,3.1
2018-06-14T10:28:50.118Z,3.6
2018-06-14T10:30:50.235Z,3.9
2018-06-14T10:32:50.413Z,3.3
2018-06-14T10:34:49.860Z,3.3
2018-06-14T10:36:50.117Z,3.4
2018-06-14T10:38:50.314Z,3.6
2018-06-14T10:40:50.493Z,3.2
2018-06-14T10:42:49.845Z,3.2
2018-06-14T10:44:50.018Z,3.3
2018-06-14T10:46:50.242Z,3.8
2018-06-14T10:48:50.370Z,3.7
2018-06-14T10:50:50.507Z,3.3
2018-06-14T10:52:49.596Z,3.3
2018-06-14T10:54:49.779Z,3.6
2018-06-14T10:56:50.040Z,3.6
2018-06-14T10:58:50.144Z,3.3
2018-06-14T11:00:50.318Z,3.7
2018-06-14T11:02:49.676Z,3.7
2018-06-14T11:04:50.013Z,3.4
2018-06-14T11:06:50.294Z,3.7
2018-06-14T11:08:50.451Z,3.6
2018-06-14T11:10:49.540Z,3.6
2018-06-14T11:12:49.684Z,3.7
2018-06-14T11:14:49.788Z,3.5
2018-06-14T11:16:50.027Z,3.6
2018-06-14T11:18:50.205Z,3.2
2018-06-14T11:20:50.390Z,3.2
2018-06-14T11:22:49.541Z,3.4
2018-06-14T11:24:49.688Z,3.4
2018-06-14T11:26:49.937Z,3.8
2018-06-14T11:28:50.065Z,3.8
2018-06-14T11:30:50.229Z,3.6
2018-06-14T11:32:50.437Z,3.9
2018-06-14T11:34:49.952Z,3.9
2018-06-14T11:36:50.230Z,3.7
2018-06-14T11:38:50.364Z,3.7
2018-06-14T11:40:50.494Z,3.8
2018-06-14T11:42:49.685Z,3.8
2018-06-14T11:44:49.830Z,3.9
2018-06-14T11:46:50.200Z,3.9
2018-06-14T11:48:50.373Z,3.7
2018-06-14T11:50:49.552Z,3.7
2018-06-14T11:52:49.818Z,3.4
2018-06-14T11:54:49.935Z,3.8
2018-06-14T11:56:50.197Z,3.7
2018-06-14T11:58:50.351Z,3.8
2018-06-14T12:00:50.434Z,3.8
2018-06-14T12:02:49.557Z,3.6
2018-06-14T12:04:49.923Z,3.5
2018-06-14T12:06:50.294Z,3.2
2018-06-14T12:08:50.446Z,3.0
2018-06-14T12:10:49.558Z,3.0
2018-06-14T12:12:49.708Z,3.4
2018-06-14T12:14:49.843Z,3.5
2018-06-14T12:16:50.136Z,3.5
2018-06-14T12:18:50.328Z,3.5
2018-06-14T12:20:50.490Z,3.5
2018-06-14T12:22:49.757Z,3.3
2018-06-14T12:24:49.903Z,3.5
2018-06-14T12:26:50.240Z,3.2
2018-06-14T12:28:50.375Z,3.2
2018-06-14T12:30:49.547Z,3.4
2018-06-14T12:32:49.641Z,3.5
2018-06-14T12:34:50.062Z,3.5
2018-06-14T12:36:50.337Z,3.5
2018-06-14T12:38:50.452Z,3.9
2018-06-14T12:40:49.758Z,3.5
2018-06-14T12:42:49.849Z,3.2
2018-06-14T12:44:49.984Z,4.0
2018-06-14T12:46:50.227Z,4.0
2018-06-14T12:48:50.342Z,3.9
2018-06-14T12:50:49.534Z,3.9
2018-06-14T12:52:49.720Z,3.3
2018-06-14T12:54:49.837Z,4.1
2018-06-14T12:56:50.184Z,4.1
2018-06-14T12:58:50.331Z,3.8
2018-06-14T13:00:50.520Z,3.9
2018-06-14T13:02:49.626Z,3.5
2018-06-14T13:04:49.869Z,4.1
2018-06-14T13:06:50.153Z,4.1
2018-06-14T13:08:50.454Z,3.9
2018-06-14T13:10:49.577Z,3.9
2018-06-14T13:12:49.778Z,3.8
2018-06-14T13:14:50.137Z,3.8
2018-06-14T13:16:50.143Z,4.1
2018-06-14T13:18:50.263Z,4.1
2018-06-14T13:20:50.410Z,4.0
2018-06-14T13:22:49.807Z,4.0
2018-06-14T13:24:49.947Z,4.5
2018-06-14T13:26:50.281Z,3.7
2018-06-14T13:28:50.435Z,3.7
2018-06-14T13:30:49.529Z,3.8
2018-06-14T13:32:49.846Z,3.1
2018-06-14T13:34:50.141Z,2.8
2018-06-14T13:36:50.419Z,2.8
2018-06-14T13:38:49.581Z,3.6
2018-06-14T13:40:49.734Z,3.8
2018-06-14T13:42:50.017Z,4.0
2018-06-14T13:44:49.872Z,3.3
2018-06-14T13:46:50.193Z,3.3
2018-06-14T13:48:50.568Z,3.3
2018-06-14T13:50:49.577Z,3.4
2018-06-14T13:52:49.758Z,3.4
2018-06-14T13:54:49.860Z,2.9
2018-06-14T13:56:50.147Z,2.9
2018-06-14T13:58:50.305Z,2.6
2018-06-14T14:00:50.614Z,3.0
2018-06-14T14:02:50.359Z,3.0
2018-06-14T14:04:49.935Z,3.0
2018-06-14T14:06:50.206Z,2.8
2018-06-14T14:08:50.295Z,2.7
2018-06-14T14:10:50.496Z,2.5
2018-06-14T14:12:49.655Z,2.6
2018-06-14T14:14:49.856Z,2.6
2018-06-14T14:16:50.105Z,2.6
2018-06-14T14:18:50.224Z,3.0
2018-06-14T14:20:50.326Z,3.0
2018-06-14T14:22:50.518Z,2.7
2018-06-14T14:24:49.663Z,2.7
2018-06-14T14:26:49.920Z,2.7
2018-06-14T14:28:50.057Z,2.9
2018-06-14T14:30:50.188Z,3.3
2018-06-14T14:32:50.318Z,3.3
2018-06-14T14:34:49.639Z,2.7
2018-06-14T14:36:49.910Z,2.7
2018-06-14T14:38:50.020Z,3.0
2018-06-14T14:40:50.156Z,3.0
2018-06-14T14:42:50.264Z,3.0
2018-06-14T14:44:50.509Z,2.8
2018-06-14T14:46:49.756Z,2.7
2018-06-14T14:48:49.940Z,2.7
2018-06-14T14:50:50.065Z,2.6
2018-06-14T14:52:50.164Z,2.8
2018-06-14T14:54:50.421Z,2.8
2018-06-14T14:56:49.766Z,2.7
2018-06-14T14:58:49.909Z,2.5
2018-06-14T15:00:50.029Z,2.5
2018-06-14T15:02:50.127Z,2.4
2018-06-14T15:04:50.432Z,2.4
2018-06-14T15:06:49.685Z,2.6
2018-06-14T15:08:49.866Z,2.5
2018-06-14T15:10:50.043Z,2.5
2018-06-14T15:12:50.136Z,2.5
2018-06-14T15:14:50.309Z,2.4
2018-06-14T15:16:49.605Z,2.8
2018-06-14T15:18:49.748Z,2.7
2018-06-14T15:20:49.906Z,2.7
2018-06-14T15:22:50.043Z,2.9
2018-06-14T15:24:50.180Z,2.9
2018-06-14T15:26:50.490Z,2.6
2018-06-14T15:28:49.670Z,2.5
2018-06-14T15:30:49.843Z,3.1
2018-06-14T15:32:49.941Z,3.1
2018-06-14T15:34:50.167Z,2.6
2018-06-14T15:36:50.446Z,2.7
2018-06-14T15:38:49.568Z,2.6
2018-06-14T15:40:49.821Z,2.6
2018-06-14T15:42:49.964Z,2.3
2018-06-14T15:44:50.254Z,2.1
2018-06-14T15:46:50.540Z,2.7
2018-06-14T15:48:49.815Z,2.3
2018-06-14T15:50:50.422Z,2.3
2018-06-14T15:52:49.624Z,2.3
2018-06-14T15:54:49.774Z,2.6
2018-06-14T15:56:50.027Z,2.2
2018-06-14T15:58:50.237Z,2.6
2018-06-14T16:00:50.425Z,2.6
2018-06-14T16:02:50.049Z,2.7
2018-06-14T16:04:50.364Z,2.4
2018-06-14T16:06:49.824Z,2.1
2018-06-14T16:08:49.957Z,2.6
2018-06-14T16:10:50.200Z,2.6
2018-06-14T16:12:49.738Z,2.6
2018-06-14T16:14:49.906Z,2.6
2018-06-14T16:16:50.150Z,2.4
2018-06-14T16:18:50.326Z,2.4
2018-06-14T16:20:50.507Z,2.5
2018-06-14T16:22:49.632Z,2.4
2018-06-14T16:24:49.831Z,2.8
2018-06-14T16:26:50.296Z,2.6
2018-06-14T16:28:49.781Z,2.6
2018-06-14T16:30:49.924Z,2.4
2018-06-14T16:32:50.128Z,2.6
2018-06-14T16:34:50.489Z,2.5
2018-06-14T16:36:49.716Z,2.5
2018-06-14T16:38:49.869Z,2.2
2018-06-14T16:40:50.038Z,2.7
2018-06-14T16:42:50.279Z,2.8
2018-06-14T16:44:50.459Z,2.9
2018-06-14T16:46:49.827Z,2.9
2018-06-14T16:48:49.964Z,2.3
2018-06-14T16:50:50.089Z,2.3
2018-06-14T16:52:50.254Z,2.4
2018-06-14T16:54:50.421Z,2.5
2018-06-14T16:56:49.663Z,2.5
2018-06-14T16:58:49.794Z,2.5
2018-06-14T17:00:49.941Z,2.5
2018-06-14T17:02:50.076Z,2.5
2018-06-14T17:04:50.436Z,2.4
2018-06-14T17:06:49.691Z,2.4
2018-06-14T17:08:49.822Z,2.3
2018-06-14T17:10:50.037Z,2.6
2018-06-14T17:12:50.299Z,2.7
2018-06-14T17:14:50.430Z,2.7
2018-06-14T17:16:49.740Z,2.6
2018-06-14T17:18:49.905Z,2.6
2018-06-14T17:20:50.048Z,2.6
2018-06-14T17:22:50.250Z,2.7
2018-06-14T17:24:50.398Z,2.8
2018-06-14T17:26:49.683Z,2.8
2018-06-14T17:28:49.779Z,3.1
2018-06-14T17:30:49.875Z,3.5
2018-06-14T17:32:50.240Z,3.7
2018-06-14T17:34:49.677Z,3.0
2018-06-14T17:36:49.985Z,3.0
2018-06-14T17:38:50.173Z,2.9
2018-06-14T17:40:50.369Z,3.4
2018-06-14T17:42:50.520Z,2.9
2018-06-14T17:44:49.727Z,2.9
2018-06-14T17:46:49.937Z,2.8
2018-06-14T17:48:50.061Z,4.0
2018-06-14T17:50:50.209Z,3.0
2018-06-14T17:52:50.440Z,2.8
2018-06-14T17:54:49.516Z,2.8
2018-06-14T17:56:50.023Z,3.1
2018-06-14T17:58:50.342Z,3.1
2018-06-14T18:00:50.543Z,2.8
2018-06-14T18:02:50.130Z,2.7
2018-06-14T18:04:49.636Z,2.7
2018-06-14T18:06:49.949Z,4.0
2018-06-14T18:08:50.115Z,2.6
2018-06-14T18:10:50.266Z,2.8
2018-06-14T18:12:49.557Z,2.8
2018-06-14T18:14:49.704Z,2.7
2018-06-14T18:16:49.970Z,2.7
2018-06-14T18:18:50.154Z,2.7
2018-06-14T18:20:50.317Z,3.0
2018-06-14T18:22:50.508Z,2.9
2018-06-14T18:24:49.655Z,2.9
2018-06-14T18:26:49.906Z,3.0
2018-06-14T18:28:50.074Z,3.0
2018-06-14T18:30:50.171Z,3.5
2018-06-14T18:32:50.445Z,3.5
2018-06-14T18:34:50.130Z,2.7
2018-06-14T18:36:50.435Z,2.6
2018-06-14T18:38:49.562Z,2.7
2018-06-14T18:40:49.691Z,2.7
2018-06-14T18:42:49.864Z,2.7
2018-06-14T18:44:50.075Z,2.7
2018-06-14T18:46:50.374Z,2.7
2018-06-14T18:48:49.621Z,2.7
2018-06-14T18:50:49.762Z,2.4
2018-06-14T18:52:49.938Z,2.4
2018-06-14T18:54:50.044Z,2.6
2018-06-14T18:56:50.253Z,2.3
2018-06-14T18:58:50.391Z,2.3
2018-06-14T19:00:49.636Z,2.8
2018-06-14T19:02:49.790Z,2.9
2018-06-14T19:04:50.096Z,3.2
2018-06-14T19:06:50.396Z,3.1
2018-06-14T19:08:49.532Z,3.1
2018-06-14T19:10:49.699Z,3.1
2018-06-14T19:12:49.820Z,2.9
2018-06-14T19:14:50.086Z,2.8
2018-06-14T19:16:50.463Z,7.3
2018-06-14T19:18:49.632Z,7.3
2018-06-14T19:20:49.828Z,3.3
2018-06-14T19:22:50.030Z,2.7
2018-06-14T19:24:50.205Z,2.7
2018-06-14T19:26:50.519Z,3.3
2018-06-14T19:28:49.658Z,3.0
2018-06-14T19:30:49.923Z,3.0
2018-06-14T19:32:50.053Z,2.6
2018-06-14T19:34:50.423Z,2.9
2018-06-14T19:36:49.625Z,2.7
2018-06-14T19:38:49.775Z,4.6
2018-06-14T19:40:49.870Z,2.7
2018-06-14T19:42:50.142Z,2.7
2018-06-14T19:44:50.278Z,2.7
2018-06-14T19:46:49.648Z,2.7
2018-06-14T19:48:49.839Z,2.8
2018-06-14T19:50:50.080Z,2.6
2018-06-14T19:52:50.244Z,2.6
2018-06-14T19:54:50.487Z,2.9
2018-06-14T19:56:50.184Z,2.7
2018-06-14T19:58:50.370Z,2.7
2018-06-14T20:00:50.517Z,2.7
2018-06-14T20:02:49.799Z,2.6
2018-06-14T20:04:50.346Z,2.7
2018-06-14T20:06:49.585Z,2.8
2018-06-14T20:08:49.778Z,2.8
2018-06-14T20:10:49.959Z,2.7
2018-06-14T20:12:50.064Z,3.0
2018-06-14T20:14:50.210Z,11.4
2018-06-14T20:16:49.594Z,3.9
2018-06-14T20:18:49.694Z,3.9
2018-06-14T20:20:49.871Z,3.1
2018-06-14T20:22:49.524Z,2.9
2018-06-14T20:24:49.626Z,3.1
2018-06-14T20:26:49.900Z,2.9
2018-06-14T20:28:50.119Z,2.9
2018-06-14T20:30:50.481Z,3.0
2018-06-14T20:32:49.667Z,3.1
2018-06-14T20:34:50.152Z,3.4
2018-06-14T20:36:50.424Z,2.9
2018-06-14T20:38:49.669Z,2.9
2018-06-14T20:40:49.789Z,3.4
2018-06-14T20:42:49.961Z,3.4
2018-06-14T20:44:50.268Z,3.2
2018-06-14T20:46:50.541Z,3.2
2018-06-14T20:48:49.896Z,3.4
2018-06-14T20:50:50.404Z,3.4
2018-06-14T20:52:50.524Z,3.4
2018-06-14T20:54:49.713Z,3.1
2018-06-14T20:56:49.961Z,3.1
2018-06-14T20:58:50.129Z,3.4
2018-06-14T21:00:50.305Z,3.3
2018-06-14T21:02:50.490Z,3.3
2018-06-14T21:04:49.800Z,3.4
2018-06-14T21:06:50.054Z,3.4
2018-06-14T21:08:50.239Z,3.5
2018-06-14T21:10:50.379Z,3.5
2018-06-14T21:12:49.583Z,3.8
2018-06-14T21:14:49.709Z,3.6
2018-06-14T21:16:49.865Z,3.6
2018-06-14T21:18:50.035Z,3.9
2018-06-14T21:20:50.269Z,3.8
2018-06-14T21:22:49.943Z,3.8
2018-06-14T21:24:50.048Z,4.4
2018-06-14T21:26:50.301Z,4.4
2018-06-14T21:28:50.430Z,4.2
2018-06-14T21:30:49.587Z,4.4
2018-06-14T21:32:49.738Z,4.4
2018-06-14T21:34:50.057Z,4.3
2018-06-14T21:36:50.383Z,4.3
2018-06-14T21:38:50.479Z,4.5
2018-06-14T21:40:49.608Z,4.7
2018-06-14T21:42:49.721Z,4.4
2018-06-14T21:44:49.864Z,4.6
2018-06-14T21:46:50.093Z,4.6
2018-06-14T21:48:50.281Z,4.7
2018-06-14T21:50:50.453Z,4.5
2018-06-14T21:52:49.705Z,4.6
2018-06-14T21:54:49.825Z,4.6
2018-06-14T21:56:50.097Z,4.7
2018-06-14T21:58:50.245Z,4.7
2018-06-14T22:00:50.358Z,4.8
2018-06-14T22:02:50.441Z,4.9
2018-06-14T22:04:49.926Z,4.9
2018-06-14T22:06:50.195Z,4.8
2018-06-14T22:08:50.341Z,5.2
2018-06-14T22:10:49.553Z,4.7
2018-06-14T22:12:49.787Z,4.7
2018-06-14T22:14:49.929Z,5.1
2018-06-14T22:16:50.117Z,6.1
2018-06-14T22:18:50.241Z,6.5
2018-06-14T22:20:50.361Z,8.7
2018-06-14T22:22:50.514Z,8.7
2018-06-14T22:24:49.618Z,8.6
2018-06-14T22:26:49.819Z,7.4
2018-06-14T22:28:49.977Z,7.4
2018-06-14T22:30:50.134Z,7.4
2018-06-14T22:32:50.222Z,7.2
2018-06-14T22:34:49.549Z,7.2
2018-06-14T22:36:49.577Z,7.2
2018-06-14T22:38:49.694Z,7.0
2018-06-14T22:40:49.953Z,7.2
2018-06-14T22:42:50.180Z,7.2
2018-06-14T22:44:50.399Z,7.3
2018-06-14T22:46:49.695Z,7.4
2018-06-14T22:48:49.826Z,7.7
2018-06-14T22:50:49.976Z,6.9
2018-06-14T22:52:50.440Z,6.9
2018-06-14T22:54:50.127Z,9.6
2018-06-14T22:56:50.427Z,11.0
2018-06-14T22:58:49.553Z,9.5
2018-06-14T23:00:49.778Z,9.9
2018-06-14T23:02:49.949Z,9.9
2018-06-14T23:04:50.294Z,6.9
2018-06-14T23:06:49.797Z,6.3
2018-06-14T23:08:49.970Z,6.1
2018-06-14T23:10:50.089Z,6.4
2018-06-14T23:12:50.002Z,6.4
2018-06-14T23:14:50.166Z,6.0
2018-06-14T23:16:50.445Z,6.0
2018-06-14T23:18:49.570Z,6.0
2018-06-14T23:20:49.777Z,6.0
2018-06-14T23:22:49.948Z,6.2
2018-06-14T23:24:50.117Z,6.2
2018-06-14T23:26:50.354Z,6.1
2018-06-14T23:28:50.500Z,6.7
2018-06-14T23:30:49.602Z,6.7
2018-06-14T23:32:49.762Z,6.4
2018-06-14T23:34:50.050Z,7.0
2018-06-14T23:36:50.356Z,6.4
2018-06-14T23:38:50.483Z,6.4
2018-06-14T23:40:49.618Z,6.2
2018-06-14T23:42:49.837Z,7.4
2018-06-14T23:44:50.002Z,7.4
2018-06-14T23:46:50.501Z,7.0
2018-06-14T23:48:49.658Z,6.9
2018-06-14T23:50:49.816Z,6.9
2018-06-14T23:52:50.019Z,7.0
2018-06-14T23:54:50.181Z,7.6
2018-06-14T23:56:50.365Z,7.3
2018-06-14T23:58:49.581Z,6.9
